Reecon Whale — 9HA2885 — position and weather

sailwx.info

Track history (hours):
 
Tides and Currents Weather Stations Pressure Air Temp Water Temp Dewpoint Dewpoint Depression Visibility Wind Speed Wind Dir Waves Ship Positions

Reecon Whale

Last reported at 2018-Apr-17 00:04 UTC. Time now 2018-Apr-20 16:46 UTC.
Position N 45°16' E 030°42'.

Length 145 m; draft 8.1 m.

Type: Ship. MMSI: 256579000.

Date/timePositionNaut miles runAvg speedWind from/ knotsBaromVisibWave heightAir tempDewpointWater temp
2018-Apr-17 00:04N 45°16' E 030°42'112.6
2018-Apr-16 23:59N 45°17' E 030°42'2912.5
2018-Apr-16 21:43N 45°44' E 030°55'712.6
2018-Apr-16 21:08N 45°51' E 030°58'212.8
2018-Apr-16 21:00N 45°52' E 030°59'2211.4
2018-Apr-16 19:04N 46°14' E 030°55'112.6
2018-Apr-16 19:00N 46°15' E 030°54'5 9.2
2018-Apr-16 18:30N 46°19' E 030°52'612.1
2018-Apr-16 18:01N 46°25' E 030°50'611.2
2018-Apr-16 17:30N 46°30' E 030°46'1 1.6
2018-Apr-16 16:59N 46°29' E 030°45'0 0.0
2018-Apr-16 16:23N 46°29' E 030°45'0 0.0
2018-Apr-16 15:59N 46°29' E 030°45'0 0.0
2018-Apr-16 15:29N 46°29' E 030°45'0 0.0
2018-Apr-16 14:59N 46°29' E 030°45'0 0.0
2018-Apr-16 14:26N 46°29' E 030°45'0 0.0
2018-Apr-16 13:59N 46°29' E 030°45'0 0.0
2018-Apr-16 13:20N 46°29' E 030°45'0 0.0
2018-Apr-16 12:59N 46°29' E 030°45'0 0.0
2018-Apr-16 12:26N 46°29' E 030°45'0 0.0
2018-Apr-16 11:59N 46°29' E 030°45'0 0.0
2018-Apr-16 11:29N 46°29' E 030°45'0 0.0
2018-Apr-16 10:59N 46°29' E 030°45'0 0.5
2018-Apr-16 10:30N 46°30' E 030°45'2 4.0
2018-Apr-16 10:01N 46°30' E 030°48'4 8.4
2018-Apr-16 09:31N 46°26' E 030°52'612.0
2018-Apr-16 08:59N 46°20' E 030°54'611.9
2018-Apr-16 08:31N 46°16' E 030°59'712.3
2018-Apr-16 07:59N 46°11' E 031°05'510.7
2018-Apr-16 07:30N 46°06' E 031°08'812.5
2018-Apr-16 06:53N 45°59' E 031°04'512.5
2018-Apr-16 06:30N 45°54' E 031°02'612.5
2018-Apr-16 06:01N 45°48' E 030°59'612.7
2018-Apr-16 05:30N 45°42' E 030°56'712.7
2018-Apr-16 04:59N 45°36' E 030°53'1212.7
2018-Apr-16 04:05N 45°25' E 030°48'112.6
2018-Apr-16 04:00N 45°24' E 030°48'1212.6
2018-Apr-16 03:05N 45°13' E 030°43'112.6
2018-Apr-16 03:00N 45°12' E 030°43'2512.4
2018-Apr-16 00:57N 44°49' E 030°26'912.6
2018-Apr-16 00:13N 44°43' E 030°17'312.2
2018-Apr-16 00:01N 44°41' E 030°14'612.5
2018-Apr-15 23:30N 44°37' E 030°07'612.4
2018-Apr-15 23:00N 44°33' E 030°01'612.3
2018-Apr-15 22:30N 44°29' E 029°54'712.5
2018-Apr-15 21:55N 44°24' E 029°47'1112.8
2018-Apr-15 21:05N 44°17' E 029°36'112.8
2018-Apr-15 21:01N 44°16' E 029°35'1112.4
2018-Apr-15 20:05N 44°09' E 029°23'112.6
2018-Apr-15 20:00N 44°08' E 029°21'  
2018-Apr-09 07:31N 40°57' E 028°59'012.4
2018-Apr-09 07:30N 40°57' E 028°59'713.8
2018-Apr-09 07:00N 40°51' E 028°53'612.3
2018-Apr-09 06:30N 40°45' E 028°54'1 1.7
2018-Apr-09 06:00N 40°44' E 028°54'1 1.6
2018-Apr-09 05:29N 40°45' E 028°55'1 1.6
2018-Apr-09 05:00N 40°46' E 028°56'1 1.5
2018-Apr-09 04:30N 40°46' E 028°56'1 1.4
2018-Apr-09 04:00N 40°47' E 028°56'5 9.6
2018-Apr-09 03:28N 40°47' E 028°49'612.1
2018-Apr-09 03:00N 40°51' E 028°44'5 0.2
2018-Apr-07 18:34N 40°55' E 028°39'1 0.5
2018-Apr-07 16:01N 40°55' E 028°41'0 1.2
2018-Apr-07 16:00N 40°55' E 028°41'3 5.4
2018-Apr-07 15:23N 40°53' E 028°43'30 9.9
2018-Apr-07 12:23N 40°26' E 029°00'410.0
2018-Apr-07 12:00N 40°25' E 029°05'  
Track history (hours):
 
Tides and Currents Weather Stations Pressure Air Temp Water Temp Dewpoint Dewpoint Depression Visibility Wind Speed Wind Dir Waves Ship Positions

Reecon Whale

Last reported at 2018-Apr-17 00:04 UTC. Time now 2018-Apr-20 16:46 UTC.
Position N 45°16' E 030°42'.

Length 145 m; draft 8.1 m.

Type: Ship. MMSI: 256579000.

Date/timePositionNaut miles runAvg speedWind from/ knotsBaromVisibWave heightAir tempDewpointWater temp
2018-Apr-17 00:04N 45°16' E 030°42'112.6
2018-Apr-16 23:59N 45°17' E 030°42'2912.5
2018-Apr-16 21:43N 45°44' E 030°55'712.6
2018-Apr-16 21:08N 45°51' E 030°58'212.8
2018-Apr-16 21:00N 45°52' E 030°59'2211.4
2018-Apr-16 19:04N 46°14' E 030°55'112.6
2018-Apr-16 19:00N 46°15' E 030°54'5 9.2
2018-Apr-16 18:30N 46°19' E 030°52'612.1
2018-Apr-16 18:01N 46°25' E 030°50'611.2
2018-Apr-16 17:30N 46°30' E 030°46'1 1.6
2018-Apr-16 16:59N 46°29' E 030°45'0 0.0
2018-Apr-16 16:23N 46°29' E 030°45'0 0.0
2018-Apr-16 15:59N 46°29' E 030°45'0 0.0
2018-Apr-16 15:29N 46°29' E 030°45'0 0.0
2018-Apr-16 14:59N 46°29' E 030°45'0 0.0
2018-Apr-16 14:26N 46°29' E 030°45'0 0.0
2018-Apr-16 13:59N 46°29' E 030°45'0 0.0
2018-Apr-16 13:20N 46°29' E 030°45'0 0.0
2018-Apr-16 12:59N 46°29' E 030°45'0 0.0
2018-Apr-16 12:26N 46°29' E 030°45'0 0.0
2018-Apr-16 11:59N 46°29' E 030°45'0 0.0
2018-Apr-16 11:29N 46°29' E 030°45'0 0.0
2018-Apr-16 10:59N 46°29' E 030°45'0 0.5
2018-Apr-16 10:30N 46°30' E 030°45'2 4.0
2018-Apr-16 10:01N 46°30' E 030°48'4 8.4
2018-Apr-16 09:31N 46°26' E 030°52'612.0
2018-Apr-16 08:59N 46°20' E 030°54'611.9
2018-Apr-16 08:31N 46°16' E 030°59'712.3
2018-Apr-16 07:59N 46°11' E 031°05'510.7
2018-Apr-16 07:30N 46°06' E 031°08'812.5
2018-Apr-16 06:53N 45°59' E 031°04'512.5
2018-Apr-16 06:30N 45°54' E 031°02'612.5
2018-Apr-16 06:01N 45°48' E 030°59'612.7
2018-Apr-16 05:30N 45°42' E 030°56'712.7
2018-Apr-16 04:59N 45°36' E 030°53'1212.7
2018-Apr-16 04:05N 45°25' E 030°48'112.6
2018-Apr-16 04:00N 45°24' E 030°48'1212.6
2018-Apr-16 03:05N 45°13' E 030°43'112.6
2018-Apr-16 03:00N 45°12' E 030°43'2512.4
2018-Apr-16 00:57N 44°49' E 030°26'912.6
2018-Apr-16 00:13N 44°43' E 030°17'312.2
2018-Apr-16 00:01N 44°41' E 030°14'612.5
2018-Apr-15 23:30N 44°37' E 030°07'612.4
2018-Apr-15 23:00N 44°33' E 030°01'612.3
2018-Apr-15 22:30N 44°29' E 029°54'712.5
2018-Apr-15 21:55N 44°24' E 029°47'1112.8
2018-Apr-15 21:05N 44°17' E 029°36'112.8
2018-Apr-15 21:01N 44°16' E 029°35'1112.4
2018-Apr-15 20:05N 44°09' E 029°23'112.6
2018-Apr-15 20:00N 44°08' E 029°21'  
2018-Apr-09 07:31N 40°57' E 028°59'012.4
2018-Apr-09 07:30N 40°57' E 028°59'713.8
2018-Apr-09 07:00N 40°51' E 028°53'612.3
2018-Apr-09 06:30N 40°45' E 028°54'1 1.7
2018-Apr-09 06:00N 40°44' E 028°54'1 1.6
2018-Apr-09 05:29N 40°45' E 028°55'1 1.6
2018-Apr-09 05:00N 40°46' E 028°56'1 1.5
2018-Apr-09 04:30N 40°46' E 028°56'1 1.4
2018-Apr-09 04:00N 40°47' E 028°56'5 9.6
2018-Apr-09 03:28N 40°47' E 028°49'612.1
2018-Apr-09 03:00N 40°51' E 028°44'5 0.2
2018-Apr-07 18:34N 40°55' E 028°39'1 0.5
2018-Apr-07 16:01N 40°55' E 028°41'0 1.2
2018-Apr-07 16:00N 40°55' E 028°41'3 5.4
2018-Apr-07 15:23N 40°53' E 028°43'30 9.9
2018-Apr-07 12:23N 40°26' E 029°00'410.0
2018-Apr-07 12:00N 40°25' E 029°05'  

Dump ship's entire track history